sensor_id;sensor_type;location;lat;lon;timestamp;temperature;humidity
9486;DHT22;4781;48.776;9.200;2023-04-25T00:01:02;7.30;99.90
9486;DHT22;4781;48.776;9.200;2023-04-25T00:03:32;7.30;99.90
9486;DHT22;4781;48.776;9.200;2023-04-25T00:05:58;7.30;99.90
9486;DHT22;4781;48.776;9.200;2023-04-25T00:08:26;7.30;99.90
9486;DHT22;4781;48.776;9.200;2023-04-25T00:10:54;7.30;99.90
9486;DHT22;4781;48.776;9.200;2023-04-25T00:13:20;7.30;99.90
9486;DHT22;4781;48.776;9.200;2023-04-25T00:15:47;7.30;99.90
9486;DHT22;4781;48.776;9.200;2023-04-25T00:18:14;7.30;99.90
9486;DHT22;4781;48.776;9.200;2023-04-25T00:20:40;7.30;99.90
9486;DHT22;4781;48.776;9.200;2023-04-25T00:23:08;7.20;99.90
9486;DHT22;4781;48.776;9.200;2023-04-25T00:25:34;7.20;99.90
9486;DHT22;4781;48.776;9.200;2023-04-25T00:27:59;7.30;99.90
9486;DHT22;4781;48.776;9.200;2023-04-25T00:30:25;7.30;99.90
9486;DHT22;4781;48.776;9.200;2023-04-25T00:32:51;7.20;99.90
9486;DHT22;4781;48.776;9.200;2023-04-25T00:35:17;7.20;99.90
9486;DHT22;4781;48.776;9.200;2023-04-25T00:37:43;7.20;99.90
9486;DHT22;4781;48.776;9.200;2023-04-25T00:40:09;7.20;99.90
9486;DHT22;4781;48.776;9.200;2023-04-25T00:45:01;7.20;99.90
9486;DHT22;4781;48.776;9.200;2023-04-25T00:47:27;7.20;99.90
9486;DHT22;4781;48.776;9.200;2023-04-25T00:49:54;7.40;99.90
9486;DHT22;4781;48.776;9.200;2023-04-25T00:52:20;7.20;99.90
9486;DHT22;4781;48.776;9.200;2023-04-25T00:54:46;7.20;99.90
9486;DHT22;4781;48.776;9.200;2023-04-25T00:57:12;7.20;99.90
9486;DHT22;4781;48.776;9.200;2023-04-25T00:59:40;7.20;99.90
9486;DHT22;4781;48.776;9.200;2023-04-25T01:02:05;7.20;99.90
9486;DHT22;4781;48.776;9.200;2023-04-25T01:04:32;7.20;99.90
9486;DHT22;4781;48.776;9.200;2023-04-25T01:06:59;7.20;99.90
9486;DHT22;4781;48.776;9.200;2023-04-25T01:09:25;7.20;99.90
9486;DHT22;4781;48.776;9.200;2023-04-25T01:11:51;7.20;99.90
9486;DHT22;4781;48.776;9.200;2023-04-25T01:14:17;7.30;99.90
9486;DHT22;4781;48.776;9.200;2023-04-25T01:16:46;7.30;99.90
9486;DHT22;4781;48.776;9.200;2023-04-25T01:19:16;7.30;99.90
9486;DHT22;4781;48.776;9.200;2023-04-25T01:21:43;7.30;99.90
9486;DHT22;4781;48.776;9.200;2023-04-25T01:24:11;7.30;99.90
9486;DHT22;4781;48.776;9.200;2023-04-25T01:26:38;7.30;99.90
9486;DHT22;4781;48.776;9.200;2023-04-25T01:29:06;7.30;99.90
9486;DHT22;4781;48.776;9.200;2023-04-25T01:31:34;7.40;99.90
9486;DHT22;4781;48.776;9.200;2023-04-25T01:34:00;7.40;99.90
9486;DHT22;4781;48.776;9.200;2023-04-25T01:36:29;7.40;99.90
9486;DHT22;4781;48.776;9.200;2023-04-25T01:38:56;7.40;99.90
9486;DHT22;4781;48.776;9.200;2023-04-25T01:41:22;7.30;99.90
9486;DHT22;4781;48.776;9.200;2023-04-25T01:43:48;7.30;99.90
9486;DHT22;4781;48.776;9.200;2023-04-25T01:46:14;7.30;99.90
9486;DHT22;4781;48.776;9.200;2023-04-25T01:48:40;7.30;99.90
9486;DHT22;4781;48.776;9.200;2023-04-25T01:51:06;7.30;99.90
9486;DHT22;4781;48.776;9.200;2023-04-25T01:53:33;7.30;99.90
9486;DHT22;4781;48.776;9.200;2023-04-25T01:55:59;7.30;99.90
9486;DHT22;4781;48.776;9.200;2023-04-25T01:58:25;7.30;99.90
9486;DHT22;4781;48.776;9.200;2023-04-25T02:00:51;7.30;99.90
9486;DHT22;4781;48.776;9.200;2023-04-25T02:03:16;7.20;99.90
9486;DHT22;4781;48.776;9.200;2023-04-25T02:05:42;7.30;99.90
9486;DHT22;4781;48.776;9.200;2023-04-25T02:08:09;7.20;99.90
9486;DHT22;4781;48.776;9.200;2023-04-25T02:10:35;7.20;99.90
9486;DHT22;4781;48.776;9.200;2023-04-25T02:13:02;7.20;99.90
9486;DHT22;4781;48.776;9.200;2023-04-25T02:15:30;7.20;99.90
9486;DHT22;4781;48.776;9.200;2023-04-25T02:17:57;7.20;99.90
9486;DHT22;4781;48.776;9.200;2023-04-25T02:20:24;7.20;99.90
9486;DHT22;4781;48.776;9.200;2023-04-25T02:22:50;7.20;99.90
9486;DHT22;4781;48.776;9.200;2023-04-25T02:25:18;7.20;99.90
9486;DHT22;4781;48.776;9.200;2023-04-25T02:27:46;7.20;99.90
9486;DHT22;4781;48.776;9.200;2023-04-25T02:30:13;7.20;99.90
9486;DHT22;4781;48.776;9.200;2023-04-25T02:32:39;7.10;99.90
9486;DHT22;4781;48.776;9.200;2023-04-25T02:35:06;7.10;99.90
9486;DHT22;4781;48.776;9.200;2023-04-25T02:37:36;7.10;99.90
9486;DHT22;4781;48.776;9.200;2023-04-25T02:40:03;7.10;99.90
9486;DHT22;4781;48.776;9.200;2023-04-25T02:42:30;7.00;99.90
9486;DHT22;4781;48.776;9.200;2023-04-25T02:44:56;7.00;99.90
9486;DHT22;4781;48.776;9.200;2023-04-25T02:47:21;7.00;99.90
9486;DHT22;4781;48.776;9.200;2023-04-25T02:49:47;7.00;99.90
9486;DHT22;4781;48.776;9.200;2023-04-25T02:52:13;7.00;99.90
9486;DHT22;4781;48.776;9.200;2023-04-25T02:54:42;7.00;99.90
9486;DHT22;4781;48.776;9.200;2023-04-25T02:57:08;7.00;99.90
9486;DHT22;4781;48.776;9.200;2023-04-25T02:59:34;7.00;99.90
9486;DHT22;4781;48.776;9.200;2023-04-25T03:02:00;7.00;99.90
9486;DHT22;4781;48.776;9.200;2023-04-25T03:04:27;6.90;99.90
9486;DHT22;4781;48.776;9.200;2023-04-25T03:06:57;6.90;99.90
9486;DHT22;4781;48.776;9.200;2023-04-25T03:09:21;7.00;99.90
9486;DHT22;4781;48.776;9.200;2023-04-25T03:11:47;6.90;99.90
9486;DHT22;4781;48.776;9.200;2023-04-25T03:14:13;6.90;99.90
9486;DHT22;4781;48.776;9.200;2023-04-25T03:16:39;6.90;99.90
9486;DHT22;4781;48.776;9.200;2023-04-25T03:19:05;6.90;99.90
9486;DHT22;4781;48.776;9.200;2023-04-25T03:21:32;6.90;99.90
9486;DHT22;4781;48.776;9.200;2023-04-25T03:24:00;6.90;99.90
9486;DHT22;4781;48.776;9.200;2023-04-25T03:26:28;6.90;99.90
9486;DHT22;4781;48.776;9.200;2023-04-25T03:28:53;6.90;99.90
9486;DHT22;4781;48.776;9.200;2023-04-25T03:31:21;7.00;99.90
9486;DHT22;4781;48.776;9.200;2023-04-25T03:33:48;6.90;99.90
9486;DHT22;4781;48.776;9.200;2023-04-25T03:36:14;6.90;99.90
9486;DHT22;4781;48.776;9.200;2023-04-25T03:38:40;6.90;99.90
9486;DHT22;4781;48.776;9.200;2023-04-25T03:41:07;6.90;99.90
9486;DHT22;4781;48.776;9.200;2023-04-25T03:43:33;6.80;99.90
9486;DHT22;4781;48.776;9.200;2023-04-25T03:46:00;6.80;99.90
9486;DHT22;4781;48.776;9.200;2023-04-25T03:48:26;6.90;99.90
9486;DHT22;4781;48.776;9.200;2023-04-25T03:50:53;6.80;99.90
9486;DHT22;4781;48.776;9.200;2023-04-25T03:53:20;6.80;99.90
9486;DHT22;4781;48.776;9.200;2023-04-25T03:55:46;6.80;99.90
9486;DHT22;4781;48.776;9.200;2023-04-25T03:58:12;6.80;99.90
9486;DHT22;4781;48.776;9.200;2023-04-25T04:00:37;6.90;99.90
9486;DHT22;4781;48.776;9.200;2023-04-25T04:03:03;6.90;99.90
9486;DHT22;4781;48.776;9.200;2023-04-25T04:05:29;6.80;99.90
9486;DHT22;4781;48.776;9.200;2023-04-25T04:07:55;6.80;99.90
9486;DHT22;4781;48.776;9.200;2023-04-25T04:10:22;6.80;99.90
9486;DHT22;4781;48.776;9.200;2023-04-25T04:12:48;6.80;99.90
9486;DHT22;4781;48.776;9.200;2023-04-25T04:15:15;6.70;99.90
9486;DHT22;4781;48.776;9.200;2023-04-25T04:17:40;6.70;99.90
9486;DHT22;4781;48.776;9.200;2023-04-25T04:20:07;6.70;99.90
9486;DHT22;4781;48.776;9.200;2023-04-25T04:22:34;6.70;99.90
9486;DHT22;4781;48.776;9.200;2023-04-25T04:25:00;6.70;99.90
9486;DHT22;4781;48.776;9.200;2023-04-25T04:27:26;6.70;99.90
9486;DHT22;4781;48.776;9.200;2023-04-25T04:29:54;6.70;99.90
9486;DHT22;4781;48.776;9.200;2023-04-25T04:32:20;6.70;99.90
9486;DHT22;4781;48.776;9.200;2023-04-25T04:34:46;6.70;99.90
9486;DHT22;4781;48.776;9.200;2023-04-25T04:37:13;6.70;99.90
9486;DHT22;4781;48.776;9.200;2023-04-25T04:39:38;6.70;99.90
9486;DHT22;4781;48.776;9.200;2023-04-25T04:42:04;6.70;99.90
9486;DHT22;4781;48.776;9.200;2023-04-25T04:44:31;6.70;99.90
9486;DHT22;4781;48.776;9.200;2023-04-25T04:47:01;6.80;99.90
9486;DHT22;4781;48.776;9.200;2023-04-25T04:49:29;6.80;99.90
9486;DHT22;4781;48.776;9.200;2023-04-25T04:51:55;6.80;99.90
9486;DHT22;4781;48.776;9.200;2023-04-25T04:54:21;6.90;99.90
9486;DHT22;4781;48.776;9.200;2023-04-25T04:56:47;6.90;99.90
9486;DHT22;4781;48.776;9.200;2023-04-25T04:59:13;6.80;99.90
9486;DHT22;4781;48.776;9.200;2023-04-25T05:01:39;6.90;99.90
9486;DHT22;4781;48.776;9.200;2023-04-25T05:04:05;6.90;99.90
9486;DHT22;4781;48.776;9.200;2023-04-25T05:06:31;6.90;99.90
9486;DHT22;4781;48.776;9.200;2023-04-25T05:09:00;6.90;99.90
9486;DHT22;4781;48.776;9.200;2023-04-25T05:11:26;6.90;99.90
9486;DHT22;4781;48.776;9.200;2023-04-25T05:13:52;6.90;99.90
9486;DHT22;4781;48.776;9.200;2023-04-25T05:16:19;6.90;99.90
9486;DHT22;4781;48.776;9.200;2023-04-25T05:18:46;6.90;99.90
9486;DHT22;4781;48.776;9.200;2023-04-25T05:21:12;7.00;99.90
9486;DHT22;4781;48.776;9.200;2023-04-25T05:23:38;6.90;99.90
9486;DHT22;4781;48.776;9.200;2023-04-25T05:26:04;6.90;99.90
9486;DHT22;4781;48.776;9.200;2023-04-25T05:28:30;6.90;99.90
9486;DHT22;4781;48.776;9.200;2023-04-25T05:30:56;7.00;99.90
9486;DHT22;4781;48.776;9.200;2023-04-25T05:33:27;7.10;99.90
9486;DHT22;4781;48.776;9.200;2023-04-25T05:35:50;7.10;99.90
9486;DHT22;4781;48.776;9.200;2023-04-25T05:38:16;7.10;99.90
9486;DHT22;4781;48.776;9.200;2023-04-25T05:40:43;7.20;99.90
9486;DHT22;4781;48.776;9.200;2023-04-25T05:43:09;7.20;99.90
9486;DHT22;4781;48.776;9.200;2023-04-25T05:45:35;7.20;99.90
9486;DHT22;4781;48.776;9.200;2023-04-25T05:48:01;7.30;99.90
9486;DHT22;4781;48.776;9.200;2023-04-25T05:50:30;7.30;99.90
9486;DHT22;4781;48.776;9.200;2023-04-25T05:52:55;7.40;99.90
9486;DHT22;4781;48.776;9.200;2023-04-25T05:55:21;7.40;99.90
9486;DHT22;4781;48.776;9.200;2023-04-25T05:57:47;7.40;99.90
9486;DHT22;4781;48.776;9.200;2023-04-25T06:00:14;7.40;99.90
9486;DHT22;4781;48.776;9.200;2023-04-25T06:02:41;7.30;99.90
9486;DHT22;4781;48.776;9.200;2023-04-25T06:05:08;7.20;99.90
9486;DHT22;4781;48.776;9.200;2023-04-25T06:07:34;7.20;99.90
9486;DHT22;4781;48.776;9.200;2023-04-25T06:10:02;7.10;99.90
9486;DHT22;4781;48.776;9.200;2023-04-25T06:12:30;7.10;99.90
9486;DHT22;4781;48.776;9.200;2023-04-25T06:14:56;7.00;99.90
9486;DHT22;4781;48.776;9.200;2023-04-25T06:17:22;7.00;99.90
9486;DHT22;4781;48.776;9.200;2023-04-25T06:19:47;7.10;99.90
9486;DHT22;4781;48.776;9.200;2023-04-25T06:22:13;7.20;99.90
9486;DHT22;4781;48.776;9.200;2023-04-25T06:24:39;7.20;99.90
9486;DHT22;4781;48.776;9.200;2023-04-25T06:27:05;7.20;99.90
9486;DHT22;4781;48.776;9.200;2023-04-25T06:29:31;7.30;99.90
9486;DHT22;4781;48.776;9.200;2023-04-25T06:31:57;7.30;99.90
9486;DHT22;4781;48.776;9.200;2023-04-25T06:34:23;7.40;99.90
9486;DHT22;4781;48.776;9.200;2023-04-25T06:36:51;7.50;99.90
9486;DHT22;4781;48.776;9.200;2023-04-25T06:39:17;7.50;99.90
9486;DHT22;4781;48.776;9.200;2023-04-25T06:41:42;7.50;99.90
9486;DHT22;4781;48.776;9.200;2023-04-25T06:44:08;7.40;99.90
9486;DHT22;4781;48.776;9.200;2023-04-25T06:46:34;7.40;99.90
9486;DHT22;4781;48.776;9.200;2023-04-25T06:49:00;7.40;99.90
9486;DHT22;4781;48.776;9.200;2023-04-25T06:51:29;7.30;99.90
9486;DHT22;4781;48.776;9.200;2023-04-25T06:53:56;7.30;99.90
9486;DHT22;4781;48.776;9.200;2023-04-25T06:56:22;7.30;99.90
9486;DHT22;4781;48.776;9.200;2023-04-25T06:58:49;7.40;99.90
9486;DHT22;4781;48.776;9.200;2023-04-25T07:01:15;7.50;99.90
9486;DHT22;4781;48.776;9.200;2023-04-25T07:03:41;7.60;99.90
9486;DHT22;4781;48.776;9.200;2023-04-25T07:06:07;7.50;99.90
9486;DHT22;4781;48.776;9.200;2023-04-25T07:08:33;7.40;99.90
9486;DHT22;4781;48.776;9.200;2023-04-25T07:10:59;7.30;99.90
9486;DHT22;4781;48.776;9.200;2023-04-25T07:13:24;7.30;99.90
9486;DHT22;4781;48.776;9.200;2023-04-25T07:15:50;7.20;99.90
9486;DHT22;4781;48.776;9.200;2023-04-25T07:18:19;7.10;99.90
9486;DHT22;4781;48.776;9.200;2023-04-25T07:20:45;7.10;99.90
9486;DHT22;4781;48.776;9.200;2023-04-25T07:23:11;7.20;99.90
9486;DHT22;4781;48.776;9.200;2023-04-25T07:25:37;7.20;99.90
9486;DHT22;4781;48.776;9.200;2023-04-25T07:28:03;7.20;99.90
9486;DHT22;4781;48.776;9.200;2023-04-25T07:30:30;7.30;99.90
9486;DHT22;4781;48.776;9.200;2023-04-25T07:32:56;7.40;99.90
9486;DHT22;4781;48.776;9.200;2023-04-25T07:35:22;7.40;99.90
9486;DHT22;4781;48.776;9.200;2023-04-25T07:37:48;7.30;99.90
9486;DHT22;4781;48.776;9.200;2023-04-25T07:40:14;7.20;99.90
9486;DHT22;4781;48.776;9.200;2023-04-25T07:42:41;7.20;99.90
9486;DHT22;4781;48.776;9.200;2023-04-25T07:45:08;7.20;99.90
9486;DHT22;4781;48.776;9.200;2023-04-25T07:47:35;7.30;99.90
9486;DHT22;4781;48.776;9.200;2023-04-25T07:50:06;7.20;99.90
9486;DHT22;4781;48.776;9.200;2023-04-25T07:52:30;7.20;99.90
9486;DHT22;4781;48.776;9.200;2023-04-25T07:54:56;7.30;99.90
9486;DHT22;4781;48.776;9.200;2023-04-25T07:57:24;7.40;99.90
9486;DHT22;4781;48.776;9.200;2023-04-25T07:59:50;7.30;99.90
9486;DHT22;4781;48.776;9.200;2023-04-25T08:02:15;7.40;99.90
9486;DHT22;4781;48.776;9.200;2023-04-25T08:04:41;7.40;99.90
9486;DHT22;4781;48.776;9.200;2023-04-25T08:07:07;7.40;99.90
9486;DHT22;4781;48.776;9.200;2023-04-25T08:09:33;7.30;99.90
9486;DHT22;4781;48.776;9.200;2023-04-25T08:12:01;7.00;99.90
9486;DHT22;4781;48.776;9.200;2023-04-25T08:14:28;7.10;99.90
9486;DHT22;4781;48.776;9.200;2023-04-25T08:16:56;7.00;99.90
9486;DHT22;4781;48.776;9.200;2023-04-25T08:19:22;7.00;99.90
9486;DHT22;4781;48.776;9.200;2023-04-25T08:21:47;7.10;99.90
9486;DHT22;4781;48.776;9.200;2023-04-25T08:24:13;7.00;99.90
9486;DHT22;4781;48.776;9.200;2023-04-25T08:26:39;6.90;99.90
9486;DHT22;4781;48.776;9.200;2023-04-25T08:29:06;6.80;99.90
9486;DHT22;4781;48.776;9.200;2023-04-25T08:31:32;6.80;99.90
9486;DHT22;4781;48.776;9.200;2023-04-25T08:33:58;6.80;99.90
9486;DHT22;4781;48.776;9.200;2023-04-25T08:36:24;6.80;99.90
9486;DHT22;4781;48.776;9.200;2023-04-25T08:38:50;6.80;99.90
9486;DHT22;4781;48.776;9.200;2023-04-25T08:41:17;6.90;99.90
9486;DHT22;4781;48.776;9.200;2023-04-25T08:43:43;6.70;99.90
9486;DHT22;4781;48.776;9.200;2023-04-25T08:46:11;6.70;99.90
9486;DHT22;4781;48.776;9.200;2023-04-25T08:48:40;6.60;99.90
9486;DHT22;4781;48.776;9.200;2023-04-25T08:51:07;6.80;99.90
9486;DHT22;4781;48.776;9.200;2023-04-25T08:53:33;6.70;99.90
9486;DHT22;4781;48.776;9.200;2023-04-25T08:56:00;6.80;99.90
9486;DHT22;4781;48.776;9.200;2023-04-25T08:58:30;6.80;99.90
9486;DHT22;4781;48.776;9.200;2023-04-25T09:00:58;6.80;99.90
9486;DHT22;4781;48.776;9.200;2023-04-25T09:03:25;6.90;99.90
9486;DHT22;4781;48.776;9.200;2023-04-25T09:05:51;6.90;99.90
9486;DHT22;4781;48.776;9.200;2023-04-25T09:08:18;6.90;99.90
9486;DHT22;4781;48.776;9.200;2023-04-25T09:10:43;6.80;99.90
9486;DHT22;4781;48.776;9.200;2023-04-25T09:13:14;6.60;99.90
9486;DHT22;4781;48.776;9.200;2023-04-25T09:15:51;6.70;99.90
9486;DHT22;4781;48.776;9.200;2023-04-25T09:18:29;6.60;99.90
9486;DHT22;4781;48.776;9.200;2023-04-25T09:21:10;6.60;99.90
9486;DHT22;4781;48.776;9.200;2023-04-25T09:23:45;6.70;99.90
9486;DHT22;4781;48.776;9.200;2023-04-25T09:26:20;6.80;99.90
9486;DHT22;4781;48.776;9.200;2023-04-25T09:28:46;6.70;99.90
9486;DHT22;4781;48.776;9.200;2023-04-25T09:31:22;6.60;99.90
9486;DHT22;4781;48.776;9.200;2023-04-25T09:33:49;6.60;99.90
9486;DHT22;4781;48.776;9.200;2023-04-25T09:36:15;6.60;99.90
9486;DHT22;4781;48.776;9.200;2023-04-25T09:38:45;6.50;99.90
9486;DHT22;4781;48.776;9.200;2023-04-25T09:41:12;6.40;99.90
9486;DHT22;4781;48.776;9.200;2023-04-25T09:43:44;6.50;99.90
9486;DHT22;4781;48.776;9.200;2023-04-25T09:46:11;6.60;99.90
9486;DHT22;4781;48.776;9.200;2023-04-25T09:48:37;6.60;99.90
9486;DHT22;4781;48.776;9.200;2023-04-25T09:51:12;6.60;99.90
9486;DHT22;4781;48.776;9.200;2023-04-25T09:53:41;6.60;99.90
9486;DHT22;4781;48.776;9.200;2023-04-25T09:56:12;6.60;99.90
9486;DHT22;4781;48.776;9.200;2023-04-25T09:58:40;6.80;99.90
9486;DHT22;4781;48.776;9.200;2023-04-25T10:01:08;6.70;99.90
9486;DHT22;4781;48.776;9.200;2023-04-25T10:03:39;6.70;99.90
9486;DHT22;4781;48.776;9.200;2023-04-25T10:06:08;6.70;99.90
9486;DHT22;4781;48.776;9.200;2023-04-25T10:08:37;6.80;99.90
9486;DHT22;4781;48.776;9.200;2023-04-25T10:11:05;6.90;99.90
9486;DHT22;4781;48.776;9.200;2023-04-25T10:13:34;6.90;99.90
9486;DHT22;4781;48.776;9.200;2023-04-25T10:16:05;6.80;99.90
9486;DHT22;4781;48.776;9.200;2023-04-25T10:18:35;6.70;99.90
9486;DHT22;4781;48.776;9.200;2023-04-25T10:21:01;6.50;99.90
9486;DHT22;4781;48.776;9.200;2023-04-25T10:23:29;6.50;99.90
9486;DHT22;4781;48.776;9.200;2023-04-25T10:25:56;6.50;99.90
9486;DHT22;4781;48.776;9.200;2023-04-25T10:28:23;6.40;99.90
9486;DHT22;4781;48.776;9.200;2023-04-25T10:31:03;6.40;99.90
9486;DHT22;4781;48.776;9.200;2023-04-25T10:33:32;6.30;99.90
9486;DHT22;4781;48.776;9.200;2023-04-25T10:36:10;6.30;99.90
9486;DHT22;4781;48.776;9.200;2023-04-25T10:38:42;6.50;99.90
9486;DHT22;4781;48.776;9.200;2023-04-25T10:41:09;6.40;99.90
9486;DHT22;4781;48.776;9.200;2023-04-25T10:43:41;6.40;99.90
9486;DHT22;4781;48.776;9.200;2023-04-25T10:46:23;6.30;99.90
9486;DHT22;4781;48.776;9.200;2023-04-25T10:48:56;6.40;99.90
9486;DHT22;4781;48.776;9.200;2023-04-25T10:51:24;6.40;99.90
9486;DHT22;4781;48.776;9.200;2023-04-25T10:54:03;6.30;99.90
9486;DHT22;4781;48.776;9.200;2023-04-25T10:56:38;6.40;99.90
9486;DHT22;4781;48.776;9.200;2023-04-25T10:59:13;6.40;99.90
9486;DHT22;4781;48.776;9.200;2023-04-25T11:01:45;6.40;99.90
9486;DHT22;4781;48.776;9.200;2023-04-25T11:04:31;6.20;99.90
9486;DHT22;4781;48.776;9.200;2023-04-25T11:09:38;6.20;99.90
9486;DHT22;4781;48.776;9.200;2023-04-25T11:12:05;6.20;99.90
9486;DHT22;4781;48.776;9.200;2023-04-25T11:14:33;6.30;99.90
9486;DHT22;4781;48.776;9.200;2023-04-25T11:16:59;6.30;99.90
9486;DHT22;4781;48.776;9.200;2023-04-25T11:19:30;6.30;99.90
9486;DHT22;4781;48.776;9.200;2023-04-25T11:22:02;6.40;99.90
9486;DHT22;4781;48.776;9.200;2023-04-25T11:24:28;6.40;99.90
9486;DHT22;4781;48.776;9.200;2023-04-25T11:26:59;6.40;99.90
9486;DHT22;4781;48.776;9.200;2023-04-25T11:29:29;6.40;99.90
9486;DHT22;4781;48.776;9.200;2023-04-25T11:31:56;6.50;99.90
9486;DHT22;4781;48.776;9.200;2023-04-25T11:34:25;6.30;99.90
9486;DHT22;4781;48.776;9.200;2023-04-25T11:36:51;6.10;99.90
9486;DHT22;4781;48.776;9.200;2023-04-25T11:39:21;6.10;99.90
9486;DHT22;4781;48.776;9.200;2023-04-25T11:41:47;6.00;99.90
9486;DHT22;4781;48.776;9.200;2023-04-25T11:44:16;6.00;99.90
9486;DHT22;4781;48.776;9.200;2023-04-25T11:46:44;6.10;99.90
9486;DHT22;4781;48.776;9.200;2023-04-25T11:49:10;6.30;99.90
9486;DHT22;4781;48.776;9.200;2023-04-25T11:51:45;6.40;99.90
9486;DHT22;4781;48.776;9.200;2023-04-25T11:54:09;6.30;99.90
9486;DHT22;4781;48.776;9.200;2023-04-25T11:56:35;6.30;99.90
9486;DHT22;4781;48.776;9.200;2023-04-25T11:59:03;6.20;99.90
9486;DHT22;4781;48.776;9.200;2023-04-25T12:01:32;6.20;99.90
9486;DHT22;4781;48.776;9.200;2023-04-25T12:04:11;5.90;99.90
9486;DHT22;4781;48.776;9.200;2023-04-25T12:06:45;6.10;99.90
9486;DHT22;4781;48.776;9.200;2023-04-25T12:09:14;6.10;99.90
9486;DHT22;4781;48.776;9.200;2023-04-25T12:11:46;6.00;99.90
9486;DHT22;4781;48.776;9.200;2023-04-25T12:14:21;6.20;99.90
9486;DHT22;4781;48.776;9.200;2023-04-25T12:16:54;6.30;99.90
9486;DHT22;4781;48.776;9.200;2023-04-25T12:19:22;6.30;99.90
9486;DHT22;4781;48.776;9.200;2023-04-25T12:21:50;6.50;99.90
9486;DHT22;4781;48.776;9.200;2023-04-25T12:24:24;6.20;99.90
9486;DHT22;4781;48.776;9.200;2023-04-25T12:27:04;6.30;99.90
9486;DHT22;4781;48.776;9.200;2023-04-25T12:29:32;6.30;99.90
9486;DHT22;4781;48.776;9.200;2023-04-25T12:31:59;6.20;99.90
9486;DHT22;4781;48.776;9.200;2023-04-25T12:34:27;6.10;99.90
9486;DHT22;4781;48.776;9.200;2023-04-25T12:36:55;6.30;99.90
9486;DHT22;4781;48.776;9.200;2023-04-25T12:39:23;6.40;99.90
9486;DHT22;4781;48.776;9.200;2023-04-25T12:41:51;6.00;99.90
9486;DHT22;4781;48.776;9.200;2023-04-25T12:44:20;6.20;99.90
9486;DHT22;4781;48.776;9.200;2023-04-25T12:46:47;6.30;99.90
9486;DHT22;4781;48.776;9.200;2023-04-25T12:49:13;6.40;99.90
9486;DHT22;4781;48.776;9.200;2023-04-25T12:51:39;6.60;99.90
9486;DHT22;4781;48.776;9.200;2023-04-25T12:54:07;6.50;99.90
9486;DHT22;4781;48.776;9.200;2023-04-25T12:56:34;6.60;99.90
9486;DHT22;4781;48.776;9.200;2023-04-25T12:59:02;6.80;99.90
9486;DHT22;4781;48.776;9.200;2023-04-25T13:01:31;6.90;99.90
9486;DHT22;4781;48.776;9.200;2023-04-25T13:03:57;6.60;99.90
9486;DHT22;4781;48.776;9.200;2023-04-25T13:06:23;6.50;99.90
9486;DHT22;4781;48.776;9.200;2023-04-25T13:08:49;6.70;99.90
9486;DHT22;4781;48.776;9.200;2023-04-25T13:11:15;6.90;99.90
9486;DHT22;4781;48.776;9.200;2023-04-25T13:13:41;7.00;99.90
9486;DHT22;4781;48.776;9.200;2023-04-25T13:16:07;6.90;99.90
9486;DHT22;4781;48.776;9.200;2023-04-25T13:18:34;7.10;99.90
9486;DHT22;4781;48.776;9.200;2023-04-25T13:21:00;6.80;99.90
9486;DHT22;4781;48.776;9.200;2023-04-25T13:23:27;7.00;99.90
9486;DHT22;4781;48.776;9.200;2023-04-25T13:25:54;6.90;99.90
9486;DHT22;4781;48.776;9.200;2023-04-25T13:28:26;6.70;99.90
9486;DHT22;4781;48.776;9.200;2023-04-25T13:30:52;7.00;99.90
9486;DHT22;4781;48.776;9.200;2023-04-25T13:33:18;7.20;99.90
9486;DHT22;4781;48.776;9.200;2023-04-25T13:35:46;7.30;99.90
9486;DHT22;4781;48.776;9.200;2023-04-25T13:38:15;7.60;99.90
9486;DHT22;4781;48.776;9.200;2023-04-25T13:40:41;7.60;99.90
9486;DHT22;4781;48.776;9.200;2023-04-25T13:43:07;7.90;99.90
9486;DHT22;4781;48.776;9.200;2023-04-25T13:45:32;7.70;99.90
9486;DHT22;4781;48.776;9.200;2023-04-25T13:47:58;7.20;99.90
9486;DHT22;4781;48.776;9.200;2023-04-25T13:50:24;7.10;99.90
9486;DHT22;4781;48.776;9.200;2023-04-25T13:52:50;7.20;99.90
9486;DHT22;4781;48.776;9.200;2023-04-25T13:55:17;7.10;99.90
9486;DHT22;4781;48.776;9.200;2023-04-25T13:57:42;7.20;99.90
9486;DHT22;4781;48.776;9.200;2023-04-25T14:00:10;7.20;99.90
9486;DHT22;4781;48.776;9.200;2023-04-25T14:02:37;7.50;99.90
9486;DHT22;4781;48.776;9.200;2023-04-25T14:05:04;7.60;99.90
9486;DHT22;4781;48.776;9.200;2023-04-25T14:07:31;7.70;99.90
9486;DHT22;4781;48.776;9.200;2023-04-25T14:09:57;7.80;99.90
9486;DHT22;4781;48.776;9.200;2023-04-25T14:12:23;7.50;99.90
9486;DHT22;4781;48.776;9.200;2023-04-25T14:14:49;7.60;99.90
9486;DHT22;4781;48.776;9.200;2023-04-25T14:17:15;7.90;99.90
9486;DHT22;4781;48.776;9.200;2023-04-25T14:19:41;7.80;99.90
9486;DHT22;4781;48.776;9.200;2023-04-25T14:22:11;7.80;99.90
9486;DHT22;4781;48.776;9.200;2023-04-25T14:24:37;8.10;99.90
9486;DHT22;4781;48.776;9.200;2023-04-25T14:27:03;8.50;99.90
9486;DHT22;4781;48.776;9.200;2023-04-25T14:29:30;8.70;99.90
9486;DHT22;4781;48.776;9.200;2023-04-25T14:31:56;8.60;99.90
9486;DHT22;4781;48.776;9.200;2023-04-25T14:34:23;8.70;99.90
9486;DHT22;4781;48.776;9.200;2023-04-25T14:36:49;8.50;99.90
9486;DHT22;4781;48.776;9.200;2023-04-25T14:39:15;8.60;99.90
9486;DHT22;4781;48.776;9.200;2023-04-25T14:41:42;8.60;99.90
9486;DHT22;4781;48.776;9.200;2023-04-25T14:44:07;8.60;99.90
9486;DHT22;4781;48.776;9.200;2023-04-25T14:46:33;8.70;99.90
9486;DHT22;4781;48.776;9.200;2023-04-25T14:49:00;8.60;99.90
9486;DHT22;4781;48.776;9.200;2023-04-25T14:51:26;8.70;99.90
9486;DHT22;4781;48.776;9.200;2023-04-25T14:53:52;8.50;99.90
9486;DHT22;4781;48.776;9.200;2023-04-25T14:56:18;8.50;99.90
9486;DHT22;4781;48.776;9.200;2023-04-25T14:58:44;8.40;99.90
9486;DHT22;4781;48.776;9.200;2023-04-25T15:01:11;8.60;99.90
9486;DHT22;4781;48.776;9.200;2023-04-25T15:03:39;8.40;99.90
9486;DHT22;4781;48.776;9.200;2023-04-25T15:06:06;8.30;99.90
9486;DHT22;4781;48.776;9.200;2023-04-25T15:08:32;8.30;99.90
9486;DHT22;4781;48.776;9.200;2023-04-25T15:10:58;8.30;99.90
9486;DHT22;4781;48.776;9.200;2023-04-25T15:13:26;8.30;99.90
9486;DHT22;4781;48.776;9.200;2023-04-25T15:15:52;8.40;99.90
9486;DHT22;4781;48.776;9.200;2023-04-25T15:18:21;8.30;99.90
9486;DHT22;4781;48.776;9.200;2023-04-25T15:20:49;8.40;99.90
9486;DHT22;4781;48.776;9.200;2023-04-25T15:23:16;8.50;99.90
9486;DHT22;4781;48.776;9.200;2023-04-25T15:25:43;8.40;99.90
9486;DHT22;4781;48.776;9.200;2023-04-25T15:28:10;8.40;99.90
9486;DHT22;4781;48.776;9.200;2023-04-25T15:30:36;8.30;99.90
9486;DHT22;4781;48.776;9.200;2023-04-25T15:33:02;8.50;99.90
9486;DHT22;4781;48.776;9.200;2023-04-25T15:35:28;8.50;99.90
9486;DHT22;4781;48.776;9.200;2023-04-25T15:37:55;8.40;99.90
9486;DHT22;4781;48.776;9.200;2023-04-25T15:40:21;8.40;99.90
9486;DHT22;4781;48.776;9.200;2023-04-25T15:42:48;8.50;99.90
9486;DHT22;4781;48.776;9.200;2023-04-25T15:45:24;8.30;99.90
9486;DHT22;4781;48.776;9.200;2023-04-25T15:47:51;8.40;99.90
9486;DHT22;4781;48.776;9.200;2023-04-25T15:50:18;8.30;99.90
9486;DHT22;4781;48.776;9.200;2023-04-25T15:52:44;8.50;99.90
9486;DHT22;4781;48.776;9.200;2023-04-25T15:55:11;8.30;99.90
9486;DHT22;4781;48.776;9.200;2023-04-25T15:57:38;8.20;99.90
9486;DHT22;4781;48.776;9.200;2023-04-25T16:00:06;8.20;99.90
9486;DHT22;4781;48.776;9.200;2023-04-25T16:02:36;8.20;99.90
9486;DHT22;4781;48.776;9.200;2023-04-25T16:05:03;8.20;99.90
9486;DHT22;4781;48.776;9.200;2023-04-25T16:07:29;8.20;99.90
9486;DHT22;4781;48.776;9.200;2023-04-25T16:09:55;8.00;99.90
9486;DHT22;4781;48.776;9.200;2023-04-25T16:12:21;8.00;99.90
9486;DHT22;4781;48.776;9.200;2023-04-25T16:14:47;8.10;99.90
9486;DHT22;4781;48.776;9.200;2023-04-25T16:17:12;8.10;99.90
9486;DHT22;4781;48.776;9.200;2023-04-25T16:19:38;8.10;99.90
9486;DHT22;4781;48.776;9.200;2023-04-25T16:22:04;8.10;99.90